createdAt,value
2022-10-06T00:00:31.869Z,20.60
2022-10-06T00:03:54.275Z,20.70
2022-10-06T00:07:16.921Z,20.70
2022-10-06T00:10:40.429Z,20.70
2022-10-06T00:14:02.652Z,20.70
2022-10-06T00:17:24.955Z,20.70
2022-10-06T00:20:54.841Z,20.60
2022-10-06T00:24:17.232Z,20.60
2022-10-06T00:27:41.913Z,20.60
2022-10-06T00:31:04.367Z,20.60
2022-10-06T00:34:27.494Z,20.60
2022-10-06T00:37:49.745Z,20.60
2022-10-06T00:41:14.901Z,20.60
2022-10-06T00:44:36.962Z,20.60
2022-10-06T00:48:22.356Z,20.60
2022-10-06T00:51:51.772Z,20.60
2022-10-06T00:55:14.342Z,20.60
2022-10-06T00:58:37.841Z,20.60
2022-10-06T01:02:01.531Z,20.60
2022-10-06T01:05:30.565Z,20.60
2022-10-06T01:08:53.221Z,20.60
2022-10-06T01:12:16.456Z,20.60
2022-10-06T01:15:51.572Z,20.60
2022-10-06T01:19:26.687Z,20.50
2022-10-06T01:23:00.240Z,20.60
2022-10-06T01:26:24.775Z,20.60
2022-10-06T01:29:52.169Z,20.50
2022-10-06T01:33:14.466Z,20.50
2022-10-06T01:36:36.730Z,20.60
2022-10-06T01:39:59.081Z,20.50
2022-10-06T01:43:21.662Z,20.50
2022-10-06T01:46:43.971Z,20.50
2022-10-06T01:50:07.195Z,20.50
2022-10-06T01:53:29.952Z,20.50
2022-10-06T01:56:52.209Z,20.50
2022-10-06T02:00:16.403Z,20.50
2022-10-06T02:03:39.814Z,20.50
2022-10-06T02:07:02.526Z,20.50
2022-10-06T02:10:25.193Z,20.50
2022-10-06T02:13:48.493Z,20.50
2022-10-06T02:17:10.795Z,20.50
2022-10-06T02:20:33.839Z,20.50
2022-10-06T02:23:56.198Z,20.50
2022-10-06T02:27:18.494Z,20.50
2022-10-06T02:30:40.842Z,20.50
2022-10-06T02:34:03.436Z,20.50
2022-10-06T02:37:25.754Z,20.40
2022-10-06T02:40:48.161Z,20.40
2022-10-06T02:44:10.520Z,20.40
2022-10-06T02:47:35.303Z,20.40
2022-10-06T02:51:03.671Z,20.40
2022-10-06T02:54:26.062Z,20.40
2022-10-06T02:57:48.297Z,20.40
2022-10-06T03:01:13.177Z,20.40
2022-10-06T03:04:35.534Z,20.40
2022-10-06T03:07:57.779Z,20.40
2022-10-06T03:11:21.954Z,20.40
2022-10-06T03:14:44.291Z,20.40
2022-10-06T03:18:06.874Z,20.40
2022-10-06T03:21:31.427Z,20.40
2022-10-06T03:24:53.760Z,20.40
2022-10-06T03:28:17.118Z,20.40
2022-10-06T03:31:40.262Z,20.40
2022-10-06T03:35:03.322Z,20.30
2022-10-06T03:38:26.372Z,20.30
2022-10-06T03:41:49.047Z,20.30
2022-10-06T03:45:11.505Z,20.30
2022-10-06T03:48:35.541Z,20.30
2022-10-06T03:51:58.116Z,20.30
2022-10-06T03:55:25.390Z,20.30
2022-10-06T03:58:52.002Z,20.30
2022-10-06T04:02:14.553Z,20.30
2022-10-06T04:05:36.801Z,20.30
2022-10-06T04:09:00.007Z,20.30
2022-10-06T04:12:22.830Z,20.30
2022-10-06T04:15:46.797Z,20.30
2022-10-06T04:19:11.273Z,20.30
2022-10-06T04:22:36.693Z,20.30
2022-10-06T04:26:00.344Z,20.30
2022-10-06T04:29:23.447Z,20.30
2022-10-06T04:32:49.897Z,20.30
2022-10-06T04:36:22.690Z,20.30
2022-10-06T04:39:46.347Z,20.30
2022-10-06T04:43:08.804Z,20.20
2022-10-06T04:46:47.659Z,20.30
2022-10-06T04:50:11.430Z,20.20
2022-10-06T04:53:44.241Z,20.20
2022-10-06T04:57:07.736Z,20.30
2022-10-06T05:00:30.052Z,20.30
2022-10-06T05:03:58.271Z,20.30
2022-10-06T05:07:22.572Z,20.20
2022-10-06T05:10:44.864Z,20.20
2022-10-06T05:14:07.606Z,20.20
2022-10-06T05:17:33.081Z,20.20
2022-10-06T05:21:05.782Z,20.20
2022-10-06T05:24:29.049Z,20.20
2022-10-06T05:27:51.559Z,20.20
2022-10-06T05:31:15.675Z,20.20
2022-10-06T05:34:37.951Z,20.30
2022-10-06T05:38:01.129Z,20.30
2022-10-06T05:41:26.594Z,20.30
2022-10-06T05:44:49.682Z,20.30
2022-10-06T05:48:12.003Z,20.20
2022-10-06T05:51:35.373Z,20.30
2022-10-06T05:55:04.102Z,20.30
2022-10-06T05:58:28.462Z,20.30
2022-10-06T06:01:52.147Z,20.30
2022-10-06T06:05:26.178Z,20.30
2022-10-06T06:08:52.658Z,20.30
2022-10-06T06:12:16.148Z,20.30
2022-10-06T06:16:01.442Z,20.30
2022-10-06T06:19:28.965Z,20.20
2022-10-06T06:22:54.431Z,20.20
2022-10-06T06:26:23.565Z,20.20
2022-10-06T06:29:46.508Z,20.20
2022-10-06T06:33:10.864Z,20.20
2022-10-06T06:36:40.539Z,20.20
2022-10-06T06:40:06.584Z,20.20
2022-10-06T06:43:32.614Z,20.20
2022-10-06T06:47:09.591Z,20.30
2022-10-06T06:50:32.505Z,20.30
2022-10-06T06:53:55.249Z,20.20
2022-10-06T06:57:18.234Z,20.30
2022-10-06T07:00:42.390Z,20.30
2022-10-06T07:04:06.103Z,20.30
2022-10-06T07:07:31.042Z,20.30
2022-10-06T07:10:56.574Z,20.40
2022-10-06T07:14:18.946Z,20.40
2022-10-06T07:18:02.043Z,20.50
2022-10-06T07:21:43.777Z,20.50
2022-10-06T07:25:26.538Z,20.50
2022-10-06T07:29:00.051Z,20.60
2022-10-06T07:32:23.825Z,20.60
2022-10-06T07:35:46.134Z,20.70
2022-10-06T07:39:10.460Z,20.80
2022-10-06T07:42:47.851Z,20.80
2022-10-06T07:46:14.675Z,20.80
2022-10-06T07:49:58.348Z,20.90
2022-10-06T07:53:20.675Z,20.90
2022-10-06T07:56:48.570Z,21.00
2022-10-06T08:00:12.667Z,21.00
2022-10-06T08:03:36.998Z,21.10
2022-10-06T08:06:59.305Z,21.10
2022-10-06T08:10:21.614Z,21.10
2022-10-06T08:13:47.556Z,21.20
2022-10-06T08:17:09.726Z,21.20
2022-10-06T08:20:31.940Z,21.40
2022-10-06T08:23:55.853Z,21.50
2022-10-06T08:27:18.016Z,21.90
2022-10-06T08:30:40.678Z,23.20
2022-10-06T08:34:02.876Z,23.40
2022-10-06T08:37:26.805Z,23.00
2022-10-06T08:40:49.278Z,22.80
2022-10-06T08:44:18.444Z,22.60
2022-10-06T08:47:51.021Z,22.30
2022-10-06T08:51:38.877Z,22.10
2022-10-06T08:55:20.093Z,21.90
2022-10-06T08:58:55.621Z,21.90
2022-10-06T09:02:42.023Z,21.70
2022-10-06T09:07:11.189Z,21.60
2022-10-06T09:10:58.331Z,21.60
2022-10-06T09:14:31.094Z,21.50
2022-10-06T09:18:00.304Z,21.40
2022-10-06T09:21:40.276Z,21.40
2022-10-06T09:25:22.764Z,21.40
2022-10-06T09:28:46.387Z,21.30
2022-10-06T09:32:10.976Z,21.30
2022-10-06T09:35:33.271Z,21.30
2022-10-06T09:38:57.842Z,21.30
2022-10-06T09:42:35.561Z,21.30
2022-10-06T09:46:19.127Z,21.20
2022-10-06T09:49:41.462Z,21.30
2022-10-06T09:53:10.275Z,21.20
2022-10-06T09:56:32.967Z,21.20
2022-10-06T09:59:59.718Z,21.20
2022-10-06T10:03:26.013Z,21.20
2022-10-06T10:06:48.803Z,21.20
2022-10-06T10:10:25.218Z,21.20
2022-10-06T10:13:52.343Z,21.20
2022-10-06T10:17:22.191Z,21.20
2022-10-06T10:20:54.470Z,21.20
2022-10-06T10:24:28.432Z,21.20
2022-10-06T10:28:17.483Z,21.20
2022-10-06T10:31:54.739Z,21.20
2022-10-06T10:35:27.630Z,21.20
2022-10-06T10:38:50.141Z,21.20
2022-10-06T10:42:31.407Z,21.10
2022-10-06T10:46:02.815Z,21.10
2022-10-06T10:49:29.857Z,21.20
2022-10-06T10:52:57.098Z,21.10
2022-10-06T10:56:23.277Z,21.10
2022-10-06T11:00:22.834Z,21.10
2022-10-06T11:04:00.349Z,21.10
2022-10-06T11:07:49.745Z,21.10
2022-10-06T11:11:49.845Z,21.10
2022-10-06T11:15:55.606Z,21.20
2022-10-06T11:20:03.811Z,21.20
2022-10-06T11:23:49.104Z,21.10
2022-10-06T11:27:39.037Z,21.20
2022-10-06T11:31:26.726Z,21.20
2022-10-06T11:34:49.946Z,21.10
2022-10-06T11:38:41.254Z,21.10
2022-10-06T11:42:12.709Z,21.10
2022-10-06T11:45:46.840Z,21.20
2022-10-06T11:49:30.390Z,21.20
2022-10-06T11:52:53.186Z,21.20
2022-10-06T11:56:18.236Z,21.20
2022-10-06T11:59:40.610Z,21.20
2022-10-06T12:03:33.489Z,21.20
2022-10-06T12:06:57.990Z,21.20
2022-10-06T12:10:29.363Z,21.20
2022-10-06T12:15:06.525Z,21.20
2022-10-06T12:17:41.758Z,21.20
2022-10-06T12:21:29.197Z,21.20
2022-10-06T12:25:11.625Z,21.20
2022-10-06T12:28:44.602Z,21.20
2022-10-06T12:32:20.934Z,21.20
2022-10-06T12:35:44.874Z,21.20
2022-10-06T12:39:25.750Z,21.20
2022-10-06T12:42:48.000Z,21.20
2022-10-06T12:46:25.804Z,21.20
2022-10-06T12:50:00.857Z,21.20
2022-10-06T12:53:33.395Z,21.20
2022-10-06T12:56:59.749Z,21.30
2022-10-06T13:00:52.423Z,21.30
2022-10-06T13:04:38.282Z,21.30
2022-10-06T13:08:21.220Z,21.30
2022-10-06T13:11:43.500Z,21.30
2022-10-06T13:15:34.450Z,21.20
2022-10-06T13:18:59.119Z,21.20
2022-10-06T13:22:21.338Z,21.30
2022-10-06T13:25:47.519Z,21.30
2022-10-06T13:29:21.400Z,21.20
2022-10-06T13:32:44.030Z,21.20
2022-10-06T13:36:08.607Z,21.20
2022-10-06T13:39:31.907Z,21.20
2022-10-06T13:42:55.927Z,21.30
2022-10-06T13:46:28.620Z,21.30
2022-10-06T13:49:51.009Z,21.30
2022-10-06T13:53:31.377Z,21.30
2022-10-06T13:56:53.607Z,21.30
2022-10-06T14:00:15.924Z,21.30
2022-10-06T14:03:38.198Z,21.30
2022-10-06T14:07:01.943Z,21.30
2022-10-06T14:10:55.342Z,21.40
2022-10-06T14:14:18.121Z,21.50
2022-10-06T14:17:41.003Z,21.50
2022-10-06T14:21:35.496Z,21.30
2022-10-06T14:24:57.740Z,21.00
2022-10-06T14:28:19.995Z,20.90
2022-10-06T14:31:43.068Z,20.80
2022-10-06T14:35:07.226Z,20.80
2022-10-06T14:38:29.811Z,20.70
2022-10-06T14:41:52.023Z,20.70
2022-10-06T14:45:14.301Z,20.60
2022-10-06T14:48:36.612Z,20.60
2022-10-06T14:51:58.873Z,20.60
2022-10-06T14:55:21.071Z,20.60
2022-10-06T14:58:44.026Z,20.60
2022-10-06T15:02:06.608Z,20.60
2022-10-06T15:05:30.096Z,20.50
2022-10-06T15:08:53.859Z,20.50
2022-10-06T15:12:16.074Z,20.50
2022-10-06T15:15:38.927Z,20.40
2022-10-06T15:19:04.536Z,20.40
2022-10-06T15:22:26.791Z,20.40
2022-10-06T15:26:11.586Z,20.40
2022-10-06T15:29:35.149Z,20.40
2022-10-06T15:32:57.372Z,20.40
2022-10-06T15:36:21.569Z,20.40
2022-10-06T15:39:44.339Z,20.40
2022-10-06T15:43:06.572Z,20.30
2022-10-06T15:46:31.818Z,20.40
2022-10-06T15:49:53.987Z,20.60
2022-10-06T15:53:16.231Z,20.70
2022-10-06T15:56:38.727Z,20.80
2022-10-06T16:00:00.981Z,20.90
2022-10-06T16:03:40.743Z,20.90
2022-10-06T16:07:04.220Z,21.00
2022-10-06T16:10:26.418Z,21.00
2022-10-06T16:13:48.629Z,21.10
2022-10-06T16:17:11.593Z,21.10
2022-10-06T16:20:33.794Z,21.20
2022-10-06T16:23:56.651Z,21.20
2022-10-06T16:27:18.963Z,21.20
2022-10-06T16:30:41.222Z,21.20
2022-10-06T16:34:03.822Z,21.20
2022-10-06T16:37:26.038Z,21.20
2022-10-06T16:40:58.462Z,21.30
2022-10-06T16:44:20.940Z,21.20
2022-10-06T16:47:43.293Z,21.20
2022-10-06T16:51:20.444Z,21.20
2022-10-06T16:54:42.687Z,21.20
2022-10-06T16:58:04.857Z,21.20
2022-10-06T17:01:29.804Z,21.30
2022-10-06T17:04:53.872Z,21.30
2022-10-06T17:08:16.099Z,21.30
2022-10-06T17:11:38.682Z,21.30
2022-10-06T17:15:00.853Z,21.30
2022-10-06T17:18:23.094Z,21.30
2022-10-06T17:21:48.159Z,21.30
2022-10-06T17:25:12.961Z,21.30
2022-10-06T17:28:36.483Z,21.30
2022-10-06T17:32:00.189Z,21.30
2022-10-06T17:35:22.947Z,21.30
2022-10-06T17:38:48.162Z,21.30
2022-10-06T17:42:11.513Z,21.30
2022-10-06T17:45:38.436Z,21.40
2022-10-06T17:49:07.544Z,21.30
2022-10-06T17:52:30.366Z,21.30
2022-10-06T17:55:55.128Z,21.40
2022-10-06T17:59:18.803Z,21.40
2022-10-06T18:02:41.629Z,21.30
2022-10-06T18:06:04.920Z,21.30
2022-10-06T18:09:27.179Z,21.40
2022-10-06T18:12:50.742Z,21.40
2022-10-06T18:16:18.437Z,21.40
2022-10-06T18:19:40.650Z,21.40
2022-10-06T18:23:02.804Z,21.40
2022-10-06T18:26:25.147Z,21.40
2022-10-06T18:29:47.466Z,21.40
2022-10-06T18:36:52.756Z,21.40
2022-10-06T18:40:15.121Z,21.40
2022-10-06T18:43:37.913Z,21.40
2022-10-06T18:47:18.498Z,21.40
2022-10-06T18:50:40.730Z,21.40
2022-10-06T18:54:06.397Z,21.40
2022-10-06T18:57:28.562Z,21.40
2022-10-06T19:00:50.896Z,21.40
2022-10-06T19:04:16.508Z,21.40
2022-10-06T19:07:38.681Z,21.30
2022-10-06T19:11:24.211Z,21.30
2022-10-06T19:14:47.842Z,21.30
2022-10-06T19:18:10.222Z,21.20
2022-10-06T19:21:32.554Z,21.20
2022-10-06T19:24:54.745Z,21.20
2022-10-06T19:28:16.985Z,21.20
2022-10-06T19:31:42.040Z,21.20
2022-10-06T19:35:09.249Z,21.20
2022-10-06T19:38:36.686Z,21.10
2022-10-06T19:42:17.993Z,21.10
2022-10-06T19:45:40.282Z,21.10
2022-10-06T19:49:05.729Z,21.10
2022-10-06T19:52:28.122Z,21.10
2022-10-06T19:55:50.489Z,21.10
2022-10-06T19:59:18.754Z,21.10
2022-10-06T20:02:43.230Z,21.10
2022-10-06T20:06:11.995Z,21.10
2022-10-06T20:09:34.376Z,21.20
2022-10-06T20:12:56.685Z,21.30
2022-10-06T20:16:20.420Z,21.20
2022-10-06T20:19:42.678Z,21.20
2022-10-06T20:23:04.842Z,21.20
2022-10-06T20:26:38.490Z,21.20
2022-10-06T20:30:00.682Z,21.10
2022-10-06T20:33:22.920Z,21.10
2022-10-06T20:36:45.947Z,21.10
2022-10-06T20:40:28.108Z,21.10
2022-10-06T20:43:53.797Z,21.00
2022-10-06T20:47:18.813Z,21.00
2022-10-06T20:50:41.006Z,21.00
2022-10-06T20:54:04.501Z,21.00
2022-10-06T20:57:32.867Z,21.00
2022-10-06T21:01:02.184Z,21.00
2022-10-06T21:04:24.472Z,21.00
2022-10-06T21:07:46.887Z,20.90
2022-10-06T21:11:09.773Z,20.90
2022-10-06T21:14:33.942Z,20.90
2022-10-06T21:17:56.168Z,20.90
2022-10-06T21:21:19.610Z,20.90
2022-10-06T21:24:41.849Z,20.90
2022-10-06T21:28:04.759Z,21.00
2022-10-06T21:31:28.082Z,20.90
2022-10-06T21:34:50.451Z,20.90
2022-10-06T21:38:12.735Z,20.90
2022-10-06T21:41:39.147Z,20.90
2022-10-06T21:45:01.533Z,20.80
2022-10-06T21:48:23.765Z,20.80
2022-10-06T21:51:50.964Z,20.80
2022-10-06T21:55:13.226Z,20.80
2022-10-06T21:58:35.425Z,20.80
2022-10-06T22:01:57.804Z,20.80
2022-10-06T22:05:20.067Z,20.80
2022-10-06T22:08:42.639Z,20.80
2022-10-06T22:12:04.936Z,20.70
2022-10-06T22:15:27.239Z,20.70
2022-10-06T22:18:50.076Z,20.70
2022-10-06T22:22:12.325Z,20.70
2022-10-06T22:25:34.567Z,20.70
2022-10-06T22:28:58.428Z,20.70
2022-10-06T22:32:22.993Z,20.70
2022-10-06T22:35:51.467Z,20.70
2022-10-06T22:39:13.656Z,20.70
2022-10-06T22:42:35.807Z,20.70
2022-10-06T22:45:58.115Z,20.70
2022-10-06T22:49:20.329Z,20.70
2022-10-06T22:52:42.486Z,20.70
2022-10-06T22:56:04.730Z,20.70
2022-10-06T22:59:26.917Z,20.70
2022-10-06T23:02:49.240Z,20.70
2022-10-06T23:06:14.539Z,20.70
2022-10-06T23:09:36.792Z,20.60
2022-10-06T23:12:59.753Z,20.60
2022-10-06T23:16:22.261Z,20.60
2022-10-06T23:19:44.513Z,20.60
2022-10-06T23:23:06.781Z,20.60
2022-10-06T23:26:29.137Z,20.60
2022-10-06T23:29:51.465Z,20.60
2022-10-06T23:33:13.641Z,20.60
2022-10-06T23:36:35.805Z,20.60
2022-10-06T23:39:58.071Z,20.60
2022-10-06T23:43:20.672Z,20.60
2022-10-06T23:46:42.955Z,20.60
2022-10-06T23:50:05.618Z,20.60
2022-10-06T23:53:28.899Z,20.60
2022-10-06T23:56:53.055Z,20.50
